sensor_id;sensor_type;location;lat;lon;timestamp;temperature;humidity
33837;DHT22;20140;49.356;8.812;2023-02-14T00:01:33;0.80;99.90
33837;DHT22;20140;49.356;8.812;2023-02-14T00:03:59;0.70;99.90
33837;DHT22;20140;49.356;8.812;2023-02-14T00:06:26;0.60;99.90
33837;DHT22;20140;49.356;8.812;2023-02-14T00:08:52;0.60;99.90
33837;DHT22;20140;49.356;8.812;2023-02-14T00:11:19;0.60;99.90
33837;DHT22;20140;49.356;8.812;2023-02-14T00:13:45;0.70;99.90
33837;DHT22;20140;49.356;8.812;2023-02-14T00:16:29;0.70;99.90
33837;DHT22;20140;49.356;8.812;2023-02-14T00:18:55;0.70;99.90
33837;DHT22;20140;49.356;8.812;2023-02-14T00:21:31;0.60;99.90
33837;DHT22;20140;49.356;8.812;2023-02-14T00:24:00;0.70;99.90
33837;DHT22;20140;49.356;8.812;2023-02-14T00:26:26;0.70;99.90
33837;DHT22;20140;49.356;8.812;2023-02-14T00:28:51;0.70;99.90
33837;DHT22;20140;49.356;8.812;2023-02-14T00:31:17;0.70;99.90
33837;DHT22;20140;49.356;8.812;2023-02-14T00:33:42;0.70;99.90
33837;DHT22;20140;49.356;8.812;2023-02-14T00:36:09;0.70;99.90
33837;DHT22;20140;49.356;8.812;2023-02-14T00:38:35;0.70;99.90
33837;DHT22;20140;49.356;8.812;2023-02-14T00:41:01;0.70;99.90
33837;DHT22;20140;49.356;8.812;2023-02-14T00:43:27;0.70;99.90
33837;DHT22;20140;49.356;8.812;2023-02-14T00:45:52;0.50;99.90
33837;DHT22;20140;49.356;8.812;2023-02-14T00:48:18;0.40;99.90
33837;DHT22;20140;49.356;8.812;2023-02-14T00:50:43;0.40;99.90
33837;DHT22;20140;49.356;8.812;2023-02-14T00:53:12;0.30;99.90
33837;DHT22;20140;49.356;8.812;2023-02-14T00:55:38;0.40;99.90
33837;DHT22;20140;49.356;8.812;2023-02-14T00:58:03;0.40;99.90
33837;DHT22;20140;49.356;8.812;2023-02-14T01:00:29;0.40;99.90
33837;DHT22;20140;49.356;8.812;2023-02-14T01:02:55;0.40;99.90
33837;DHT22;20140;49.356;8.812;2023-02-14T01:05:21;0.40;99.90
33837;DHT22;20140;49.356;8.812;2023-02-14T01:07:47;0.40;99.90
33837;DHT22;20140;49.356;8.812;2023-02-14T01:10:13;0.40;99.90
33837;DHT22;20140;49.356;8.812;2023-02-14T01:12:38;0.40;99.90
33837;DHT22;20140;49.356;8.812;2023-02-14T01:15:04;0.30;99.90
33837;DHT22;20140;49.356;8.812;2023-02-14T01:17:30;0.30;99.90
33837;DHT22;20140;49.356;8.812;2023-02-14T01:19:55;0.30;99.90
33837;DHT22;20140;49.356;8.812;2023-02-14T01:22:21;0.20;99.90
33837;DHT22;20140;49.356;8.812;2023-02-14T01:24:46;0.00;99.90
33837;DHT22;20140;49.356;8.812;2023-02-14T01:27:12;0.00;99.90
33837;DHT22;20140;49.356;8.812;2023-02-14T01:29:37;0.00;99.90
33837;DHT22;20140;49.356;8.812;2023-02-14T01:32:03;0.10;99.90
33837;DHT22;20140;49.356;8.812;2023-02-14T01:34:28;0.20;99.90
33837;DHT22;20140;49.356;8.812;2023-02-14T01:36:54;0.30;99.90
33837;DHT22;20140;49.356;8.812;2023-02-14T01:39:19;0.30;99.90
33837;DHT22;20140;49.356;8.812;2023-02-14T01:41:46;0.40;99.90
33837;DHT22;20140;49.356;8.812;2023-02-14T01:46:42;0.50;99.90
33837;DHT22;20140;49.356;8.812;2023-02-14T01:49:17;0.60;99.90
33837;DHT22;20140;49.356;8.812;2023-02-14T01:52:33;0.60;99.90
33837;DHT22;20140;49.356;8.812;2023-02-14T01:54:36;0.60;99.90
33837;DHT22;20140;49.356;8.812;2023-02-14T01:57:06;0.70;99.90
33837;DHT22;20140;49.356;8.812;2023-02-14T01:59:39;0.80;99.90
33837;DHT22;20140;49.356;8.812;2023-02-14T02:02:08;0.80;99.90
33837;DHT22;20140;49.356;8.812;2023-02-14T02:04:37;0.80;99.90
33837;DHT22;20140;49.356;8.812;2023-02-14T02:07:06;0.90;99.90
33837;DHT22;20140;49.356;8.812;2023-02-14T02:09:34;0.90;99.90
33837;DHT22;20140;49.356;8.812;2023-02-14T02:12:01;0.90;99.90
33837;DHT22;20140;49.356;8.812;2023-02-14T02:14:27;0.90;99.90
33837;DHT22;20140;49.356;8.812;2023-02-14T02:17:19;1.00;99.90
33837;DHT22;20140;49.356;8.812;2023-02-14T02:25:50;1.00;99.90
33837;DHT22;20140;49.356;8.812;2023-02-14T02:36:45;1.00;99.90
33837;DHT22;20140;49.356;8.812;2023-02-14T02:47:53;1.00;99.90
33837;DHT22;20140;49.356;8.812;2023-02-14T02:50:31;1.00;99.90
33837;DHT22;20140;49.356;8.812;2023-02-14T02:53:41;1.00;99.90
33837;DHT22;20140;49.356;8.812;2023-02-14T02:56:18;1.00;99.90
33837;DHT22;20140;49.356;8.812;2023-02-14T03:01:54;1.00;99.90
33837;DHT22;20140;49.356;8.812;2023-02-14T03:04:21;1.10;99.90
33837;DHT22;20140;49.356;8.812;2023-02-14T03:07:06;1.10;99.90
33837;DHT22;20140;49.356;8.812;2023-02-14T03:09:54;1.20;99.90
33837;DHT22;20140;49.356;8.812;2023-02-14T03:20:52;1.20;99.90
33837;DHT22;20140;49.356;8.812;2023-02-14T03:26:37;1.30;99.90
33837;DHT22;20140;49.356;8.812;2023-02-14T03:32:48;1.20;99.90
33837;DHT22;20140;49.356;8.812;2023-02-14T03:35:19;1.30;99.90
33837;DHT22;20140;49.356;8.812;2023-02-14T03:38:13;1.30;99.90
33837;DHT22;20140;49.356;8.812;2023-02-14T03:40:52;1.40;99.90
33837;DHT22;20140;49.356;8.812;2023-02-14T03:43:33;1.30;99.90
33837;DHT22;20140;49.356;8.812;2023-02-14T03:46:22;1.40;99.90
33837;DHT22;20140;49.356;8.812;2023-02-14T03:48:50;1.50;99.90
33837;DHT22;20140;49.356;8.812;2023-02-14T03:51:18;1.50;99.90
33837;DHT22;20140;49.356;8.812;2023-02-14T03:53:48;1.50;99.90
33837;DHT22;20140;49.356;8.812;2023-02-14T03:56:22;1.50;99.90
33837;DHT22;20140;49.356;8.812;2023-02-14T03:58:52;1.40;99.90
33837;DHT22;20140;49.356;8.812;2023-02-14T04:01:24;1.50;99.90
33837;DHT22;20140;49.356;8.812;2023-02-14T04:03:56;1.50;99.90
33837;DHT22;20140;49.356;8.812;2023-02-14T04:06:23;1.50;99.90
33837;DHT22;20140;49.356;8.812;2023-02-14T04:08:49;1.60;99.90
33837;DHT22;20140;49.356;8.812;2023-02-14T04:11:14;1.60;99.90
33837;DHT22;20140;49.356;8.812;2023-02-14T04:13:40;1.60;99.90
33837;DHT22;20140;49.356;8.812;2023-02-14T04:16:06;1.60;99.90
33837;DHT22;20140;49.356;8.812;2023-02-14T04:18:31;1.70;99.90
33837;DHT22;20140;49.356;8.812;2023-02-14T04:21:16;1.60;99.90
33837;DHT22;20140;49.356;8.812;2023-02-14T04:23:41;1.60;99.90
33837;DHT22;20140;49.356;8.812;2023-02-14T04:26:07;1.60;99.90
33837;DHT22;20140;49.356;8.812;2023-02-14T04:28:32;1.60;99.90
33837;DHT22;20140;49.356;8.812;2023-02-14T04:31:03;1.60;99.90
33837;DHT22;20140;49.356;8.812;2023-02-14T04:33:29;1.60;99.90
33837;DHT22;20140;49.356;8.812;2023-02-14T04:35:55;1.60;99.90
33837;DHT22;20140;49.356;8.812;2023-02-14T04:38:20;1.60;99.90
33837;DHT22;20140;49.356;8.812;2023-02-14T04:40:48;1.60;99.90
33837;DHT22;20140;49.356;8.812;2023-02-14T04:43:14;1.70;99.90
33837;DHT22;20140;49.356;8.812;2023-02-14T04:45:39;1.70;99.90
33837;DHT22;20140;49.356;8.812;2023-02-14T04:48:05;1.70;99.90
33837;DHT22;20140;49.356;8.812;2023-02-14T04:50:30;1.70;99.90
33837;DHT22;20140;49.356;8.812;2023-02-14T04:52:56;1.60;99.90
33837;DHT22;20140;49.356;8.812;2023-02-14T04:55:21;1.50;99.90
33837;DHT22;20140;49.356;8.812;2023-02-14T04:57:47;1.60;99.90
33837;DHT22;20140;49.356;8.812;2023-02-14T05:00:13;1.70;99.90
33837;DHT22;20140;49.356;8.812;2023-02-14T05:02:39;1.60;99.90
33837;DHT22;20140;49.356;8.812;2023-02-14T05:05:04;1.60;99.90
33837;DHT22;20140;49.356;8.812;2023-02-14T05:07:30;1.70;99.90
33837;DHT22;20140;49.356;8.812;2023-02-14T05:09:56;1.70;99.90
33837;DHT22;20140;49.356;8.812;2023-02-14T05:12:21;1.60;99.90
33837;DHT22;20140;49.356;8.812;2023-02-14T05:14:47;1.60;99.90
33837;DHT22;20140;49.356;8.812;2023-02-14T05:17:12;1.70;99.90
33837;DHT22;20140;49.356;8.812;2023-02-14T05:19:38;1.60;99.90
33837;DHT22;20140;49.356;8.812;2023-02-14T05:22:03;1.70;99.90
33837;DHT22;20140;49.356;8.812;2023-02-14T05:24:29;1.70;99.90
33837;DHT22;20140;49.356;8.812;2023-02-14T05:26:54;1.70;99.90
33837;DHT22;20140;49.356;8.812;2023-02-14T05:29:20;1.60;99.90
33837;DHT22;20140;49.356;8.812;2023-02-14T05:31:45;1.70;99.90
33837;DHT22;20140;49.356;8.812;2023-02-14T05:34:11;1.70;99.90
33837;DHT22;20140;49.356;8.812;2023-02-14T05:36:37;1.60;99.90
33837;DHT22;20140;49.356;8.812;2023-02-14T05:39:03;1.60;99.90
33837;DHT22;20140;49.356;8.812;2023-02-14T05:41:29;1.60;99.90
33837;DHT22;20140;49.356;8.812;2023-02-14T05:43:54;1.70;99.90
33837;DHT22;20140;49.356;8.812;2023-02-14T05:46:20;1.70;99.90
33837;DHT22;20140;49.356;8.812;2023-02-14T05:48:45;1.70;99.90
33837;DHT22;20140;49.356;8.812;2023-02-14T05:51:11;1.60;99.90
33837;DHT22;20140;49.356;8.812;2023-02-14T05:53:37;1.50;99.90
33837;DHT22;20140;49.356;8.812;2023-02-14T05:56:03;1.60;99.90
33837;DHT22;20140;49.356;8.812;2023-02-14T05:58:29;1.60;99.90
33837;DHT22;20140;49.356;8.812;2023-02-14T06:00:58;1.60;99.90
33837;DHT22;20140;49.356;8.812;2023-02-14T06:03:24;1.60;99.90
33837;DHT22;20140;49.356;8.812;2023-02-14T06:05:50;1.60;99.90
33837;DHT22;20140;49.356;8.812;2023-02-14T06:08:16;1.60;99.90
33837;DHT22;20140;49.356;8.812;2023-02-14T06:10:41;1.60;99.90
33837;DHT22;20140;49.356;8.812;2023-02-14T06:13:07;1.60;99.90
33837;DHT22;20140;49.356;8.812;2023-02-14T06:15:37;1.60;99.90
33837;DHT22;20140;49.356;8.812;2023-02-14T06:18:03;1.60;99.90
33837;DHT22;20140;49.356;8.812;2023-02-14T06:20:29;1.70;99.90
33837;DHT22;20140;49.356;8.812;2023-02-14T06:22:55;1.80;99.90
33837;DHT22;20140;49.356;8.812;2023-02-14T06:25:21;1.80;99.90
33837;DHT22;20140;49.356;8.812;2023-02-14T06:27:47;1.80;99.90
33837;DHT22;20140;49.356;8.812;2023-02-14T06:30:13;1.80;99.90
33837;DHT22;20140;49.356;8.812;2023-02-14T06:32:38;1.80;99.90
33837;DHT22;20140;49.356;8.812;2023-02-14T06:35:05;1.70;99.90
33837;DHT22;20140;49.356;8.812;2023-02-14T06:37:30;1.80;99.90
33837;DHT22;20140;49.356;8.812;2023-02-14T06:39:56;1.70;99.90
33837;DHT22;20140;49.356;8.812;2023-02-14T06:42:22;1.70;99.90
33837;DHT22;20140;49.356;8.812;2023-02-14T06:44:47;1.80;99.90
33837;DHT22;20140;49.356;8.812;2023-02-14T06:47:13;1.70;99.90
33837;DHT22;20140;49.356;8.812;2023-02-14T06:49:38;1.60;99.90
33837;DHT22;20140;49.356;8.812;2023-02-14T06:52:05;1.70;99.90
33837;DHT22;20140;49.356;8.812;2023-02-14T06:54:30;1.60;99.90
33837;DHT22;20140;49.356;8.812;2023-02-14T06:56:56;1.60;99.90
33837;DHT22;20140;49.356;8.812;2023-02-14T06:59:22;1.60;99.90
33837;DHT22;20140;49.356;8.812;2023-02-14T07:01:47;1.50;99.90
33837;DHT22;20140;49.356;8.812;2023-02-14T07:04:13;1.60;99.90
33837;DHT22;20140;49.356;8.812;2023-02-14T07:06:38;1.60;99.90
33837;DHT22;20140;49.356;8.812;2023-02-14T07:09:04;1.60;99.90
33837;DHT22;20140;49.356;8.812;2023-02-14T07:11:30;1.70;99.90
33837;DHT22;20140;49.356;8.812;2023-02-14T07:13:56;1.70;99.90
33837;DHT22;20140;49.356;8.812;2023-02-14T07:16:21;1.80;99.90
33837;DHT22;20140;49.356;8.812;2023-02-14T07:18:47;1.80;99.90
33837;DHT22;20140;49.356;8.812;2023-02-14T07:21:12;1.80;99.90
33837;DHT22;20140;49.356;8.812;2023-02-14T07:23:38;1.80;99.90
33837;DHT22;20140;49.356;8.812;2023-02-14T07:26:04;1.80;99.90
33837;DHT22;20140;49.356;8.812;2023-02-14T07:28:29;1.80;99.90
33837;DHT22;20140;49.356;8.812;2023-02-14T07:31:01;1.80;99.90
33837;DHT22;20140;49.356;8.812;2023-02-14T07:33:27;1.80;99.90
33837;DHT22;20140;49.356;8.812;2023-02-14T07:35:53;1.80;99.90
33837;DHT22;20140;49.356;8.812;2023-02-14T07:38:18;1.80;99.90
33837;DHT22;20140;49.356;8.812;2023-02-14T07:40:44;1.90;99.90
33837;DHT22;20140;49.356;8.812;2023-02-14T07:43:09;1.80;99.90
33837;DHT22;20140;49.356;8.812;2023-02-14T07:45:35;1.90;99.90
33837;DHT22;20140;49.356;8.812;2023-02-14T07:48:00;1.80;99.90
33837;DHT22;20140;49.356;8.812;2023-02-14T07:50:26;1.80;99.90
33837;DHT22;20140;49.356;8.812;2023-02-14T07:52:53;1.80;99.90
33837;DHT22;20140;49.356;8.812;2023-02-14T07:55:18;1.70;99.90
33837;DHT22;20140;49.356;8.812;2023-02-14T07:57:46;1.80;99.90
33837;DHT22;20140;49.356;8.812;2023-02-14T08:00:12;1.90;99.90
33837;DHT22;20140;49.356;8.812;2023-02-14T08:02:39;1.90;99.90
33837;DHT22;20140;49.356;8.812;2023-02-14T08:05:05;1.90;99.90
33837;DHT22;20140;49.356;8.812;2023-02-14T08:07:31;1.90;99.90
33837;DHT22;20140;49.356;8.812;2023-02-14T08:09:56;1.90;99.90
33837;DHT22;20140;49.356;8.812;2023-02-14T08:12:22;2.00;99.90
33837;DHT22;20140;49.356;8.812;2023-02-14T08:15:06;2.00;99.90
33837;DHT22;20140;49.356;8.812;2023-02-14T08:17:50;1.90;99.90
33837;DHT22;20140;49.356;8.812;2023-02-14T08:20:16;1.90;99.90
33837;DHT22;20140;49.356;8.812;2023-02-14T08:22:41;1.90;99.90
33837;DHT22;20140;49.356;8.812;2023-02-14T08:25:07;2.00;99.90
33837;DHT22;20140;49.356;8.812;2023-02-14T08:27:32;2.00;99.90
33837;DHT22;20140;49.356;8.812;2023-02-14T08:29:58;1.90;99.90
33837;DHT22;20140;49.356;8.812;2023-02-14T08:32:24;2.00;99.90
33837;DHT22;20140;49.356;8.812;2023-02-14T08:34:49;2.00;99.90
33837;DHT22;20140;49.356;8.812;2023-02-14T08:37:14;2.10;99.90
33837;DHT22;20140;49.356;8.812;2023-02-14T08:39:40;2.10;99.90
33837;DHT22;20140;49.356;8.812;2023-02-14T08:42:05;2.10;99.90
33837;DHT22;20140;49.356;8.812;2023-02-14T08:44:31;2.10;99.90
33837;DHT22;20140;49.356;8.812;2023-02-14T08:46:57;2.10;99.90
33837;DHT22;20140;49.356;8.812;2023-02-14T08:49:22;2.20;99.90
33837;DHT22;20140;49.356;8.812;2023-02-14T08:51:48;2.30;99.90
33837;DHT22;20140;49.356;8.812;2023-02-14T08:54:13;2.20;99.90
33837;DHT22;20140;49.356;8.812;2023-02-14T08:56:39;2.20;99.90
33837;DHT22;20140;49.356;8.812;2023-02-14T08:59:05;2.30;99.90
33837;DHT22;20140;49.356;8.812;2023-02-14T09:01:31;2.10;99.90
33837;DHT22;20140;49.356;8.812;2023-02-14T09:03:56;2.00;99.90
33837;DHT22;20140;49.356;8.812;2023-02-14T09:06:22;2.20;99.90
33837;DHT22;20140;49.356;8.812;2023-02-14T09:08:48;2.10;99.90
33837;DHT22;20140;49.356;8.812;2023-02-14T09:11:17;2.10;99.90
33837;DHT22;20140;49.356;8.812;2023-02-14T09:13:44;2.10;99.90
33837;DHT22;20140;49.356;8.812;2023-02-14T09:16:11;2.20;99.90
33837;DHT22;20140;49.356;8.812;2023-02-14T09:18:37;2.30;99.90
33837;DHT22;20140;49.356;8.812;2023-02-14T09:21:07;2.30;99.90
33837;DHT22;20140;49.356;8.812;2023-02-14T09:23:33;2.40;99.90
33837;DHT22;20140;49.356;8.812;2023-02-14T09:26:04;2.40;99.90
33837;DHT22;20140;49.356;8.812;2023-02-14T09:28:30;2.60;99.90
33837;DHT22;20140;49.356;8.812;2023-02-14T09:30:56;2.40;99.90
33837;DHT22;20140;49.356;8.812;2023-02-14T09:33:22;2.50;99.90
33837;DHT22;20140;49.356;8.812;2023-02-14T09:35:48;2.50;99.90
33837;DHT22;20140;49.356;8.812;2023-02-14T09:38:32;2.40;99.90
33837;DHT22;20140;49.356;8.812;2023-02-14T09:40:57;2.50;99.90
33837;DHT22;20140;49.356;8.812;2023-02-14T09:43:43;2.40;99.90
33837;DHT22;20140;49.356;8.812;2023-02-14T09:46:13;2.40;99.90
33837;DHT22;20140;49.356;8.812;2023-02-14T09:48:42;2.50;99.90
33837;DHT22;20140;49.356;8.812;2023-02-14T09:51:17;2.60;99.90
33837;DHT22;20140;49.356;8.812;2023-02-14T09:53:50;2.60;99.90
33837;DHT22;20140;49.356;8.812;2023-02-14T09:59:14;2.70;99.90
33837;DHT22;20140;49.356;8.812;2023-02-14T10:01:43;2.80;99.90
33837;DHT22;20140;49.356;8.812;2023-02-14T10:07:13;2.80;99.90
33837;DHT22;20140;49.356;8.812;2023-02-14T10:10:00;2.70;99.90
33837;DHT22;20140;49.356;8.812;2023-02-14T10:12:32;2.70;99.90
33837;DHT22;20140;49.356;8.812;2023-02-14T10:15:01;2.70;99.90
33837;DHT22;20140;49.356;8.812;2023-02-14T10:20:04;2.80;99.90
33837;DHT22;20140;49.356;8.812;2023-02-14T10:22:43;2.80;99.90
33837;DHT22;20140;49.356;8.812;2023-02-14T10:25:20;2.70;99.90
33837;DHT22;20140;49.356;8.812;2023-02-14T10:27:47;2.90;99.90
33837;DHT22;20140;49.356;8.812;2023-02-14T10:30:15;3.00;99.90
33837;DHT22;20140;49.356;8.812;2023-02-14T10:32:45;3.00;99.90
33837;DHT22;20140;49.356;8.812;2023-02-14T10:41:16;3.10;99.90
33837;DHT22;20140;49.356;8.812;2023-02-14T10:44:07;3.10;99.90
33837;DHT22;20140;49.356;8.812;2023-02-14T10:46:53;3.20;99.90
33837;DHT22;20140;49.356;8.812;2023-02-14T10:54:39;3.40;99.90
33837;DHT22;20140;49.356;8.812;2023-02-14T10:57:14;3.30;99.90
33837;DHT22;20140;49.356;8.812;2023-02-14T11:02:20;3.20;99.90
33837;DHT22;20140;49.356;8.812;2023-02-14T11:04:47;3.20;99.90
33837;DHT22;20140;49.356;8.812;2023-02-14T11:07:15;3.30;99.90
33837;DHT22;20140;49.356;8.812;2023-02-14T11:09:40;3.30;99.90
33837;DHT22;20140;49.356;8.812;2023-02-14T11:12:06;3.50;99.90
33837;DHT22;20140;49.356;8.812;2023-02-14T11:14:34;3.60;99.90
33837;DHT22;20140;49.356;8.812;2023-02-14T11:17:25;3.60;99.90
33837;DHT22;20140;49.356;8.812;2023-02-14T11:22:44;3.70;99.90
33837;DHT22;20140;49.356;8.812;2023-02-14T11:25:22;3.80;99.90
33837;DHT22;20140;49.356;8.812;2023-02-14T11:27:59;3.80;99.90
33837;DHT22;20140;49.356;8.812;2023-02-14T11:30:37;3.80;99.90
33837;DHT22;20140;49.356;8.812;2023-02-14T11:33:04;3.90;99.90
33837;DHT22;20140;49.356;8.812;2023-02-14T11:35:31;4.10;99.90
33837;DHT22;20140;49.356;8.812;2023-02-14T11:38:03;4.00;99.90
33837;DHT22;20140;49.356;8.812;2023-02-14T11:40:33;4.10;99.90
33837;DHT22;20140;49.356;8.812;2023-02-14T11:43:16;4.10;99.90
33837;DHT22;20140;49.356;8.812;2023-02-14T11:45:44;4.10;99.90
33837;DHT22;20140;49.356;8.812;2023-02-14T11:48:25;4.10;99.90
33837;DHT22;20140;49.356;8.812;2023-02-14T11:53:43;4.10;99.90
33837;DHT22;20140;49.356;8.812;2023-02-14T11:56:10;4.20;99.90
33837;DHT22;20140;49.356;8.812;2023-02-14T11:58:39;4.30;99.90
33837;DHT22;20140;49.356;8.812;2023-02-14T12:01:08;4.40;99.90
33837;DHT22;20140;49.356;8.812;2023-02-14T12:03:43;4.30;99.90
33837;DHT22;20140;49.356;8.812;2023-02-14T12:06:11;4.30;99.90
33837;DHT22;20140;49.356;8.812;2023-02-14T12:08:37;4.20;99.90
33837;DHT22;20140;49.356;8.812;2023-02-14T12:11:22;4.20;99.90
33837;DHT22;20140;49.356;8.812;2023-02-14T12:13:56;4.30;99.90
33837;DHT22;20140;49.356;8.812;2023-02-14T12:16:38;4.30;99.90
33837;DHT22;20140;49.356;8.812;2023-02-14T12:19:12;4.10;99.90
33837;DHT22;20140;49.356;8.812;2023-02-14T12:21:50;4.00;99.90
33837;DHT22;20140;49.356;8.812;2023-02-14T12:27:21;4.10;99.90
33837;DHT22;20140;49.356;8.812;2023-02-14T12:30:16;4.00;99.90
33837;DHT22;20140;49.356;8.812;2023-02-14T12:32:48;4.30;99.90
33837;DHT22;20140;49.356;8.812;2023-02-14T12:37:52;4.40;99.90
33837;DHT22;20140;49.356;8.812;2023-02-14T12:54:18;4.60;99.90
33837;DHT22;20140;49.356;8.812;2023-02-14T13:00:11;5.00;99.90
33837;DHT22;20140;49.356;8.812;2023-02-14T13:03:10;4.90;99.90
33837;DHT22;20140;49.356;8.812;2023-02-14T13:06:12;4.90;99.90
33837;DHT22;20140;49.356;8.812;2023-02-14T13:11:42;4.80;99.90
33837;DHT22;20140;49.356;8.812;2023-02-14T13:14:22;4.80;99.90
33837;DHT22;20140;49.356;8.812;2023-02-14T13:16:59;4.90;99.90
33837;DHT22;20140;49.356;8.812;2023-02-14T13:22:12;4.90;99.90
33837;DHT22;20140;49.356;8.812;2023-02-14T13:24:42;5.20;99.90
33837;DHT22;20140;49.356;8.812;2023-02-14T13:27:15;5.40;99.90
33837;DHT22;20140;49.356;8.812;2023-02-14T13:29:55;5.20;99.90
33837;DHT22;20140;49.356;8.812;2023-02-14T13:32:25;5.30;99.90
33837;DHT22;20140;49.356;8.812;2023-02-14T13:34:51;5.40;99.90
33837;DHT22;20140;49.356;8.812;2023-02-14T13:37:20;5.50;99.90
33837;DHT22;20140;49.356;8.812;2023-02-14T13:39:56;5.80;99.90
33837;DHT22;20140;49.356;8.812;2023-02-14T13:50:32;6.80;99.90
33837;DHT22;20140;49.356;8.812;2023-02-14T13:52:58;6.90;99.90
33837;DHT22;20140;49.356;8.812;2023-02-14T13:55:29;6.80;99.90
33837;DHT22;20140;49.356;8.812;2023-02-14T13:58:12;7.10;99.90
33837;DHT22;20140;49.356;8.812;2023-02-14T14:00:44;7.20;99.90
33837;DHT22;20140;49.356;8.812;2023-02-14T14:06:06;7.60;99.90
33837;DHT22;20140;49.356;8.812;2023-02-14T14:11:04;8.00;99.90
33837;DHT22;20140;49.356;8.812;2023-02-14T14:21:33;9.40;99.90
33837;DHT22;20140;49.356;8.812;2023-02-14T14:24:20;9.60;99.90
33837;DHT22;20140;49.356;8.812;2023-02-14T14:29:20;9.40;99.90
33837;DHT22;20140;49.356;8.812;2023-02-14T14:31:47;10.70;99.90
33837;DHT22;20140;49.356;8.812;2023-02-14T14:34:20;10.70;99.90
33837;DHT22;20140;49.356;8.812;2023-02-14T14:36:46;9.90;99.90
33837;DHT22;20140;49.356;8.812;2023-02-14T14:39:25;10.80;99.90
33837;DHT22;20140;49.356;8.812;2023-02-14T14:41:51;10.20;99.90
33837;DHT22;20140;49.356;8.812;2023-02-14T14:44:17;9.60;99.90
33837;DHT22;20140;49.356;8.812;2023-02-14T14:46:43;9.70;99.90
33837;DHT22;20140;49.356;8.812;2023-02-14T14:49:10;10.20;99.90
33837;DHT22;20140;49.356;8.812;2023-02-14T14:51:36;10.80;99.90
33837;DHT22;20140;49.356;8.812;2023-02-14T14:54:05;10.10;99.90
33837;DHT22;20140;49.356;8.812;2023-02-14T14:56:34;8.60;99.90
33837;DHT22;20140;49.356;8.812;2023-02-14T14:59:38;8.70;99.90
33837;DHT22;20140;49.356;8.812;2023-02-14T15:02:20;10.00;99.90
33837;DHT22;20140;49.356;8.812;2023-02-14T15:04:46;10.30;99.90
33837;DHT22;20140;49.356;8.812;2023-02-14T15:07:40;10.20;99.90
33837;DHT22;20140;49.356;8.812;2023-02-14T15:10:27;10.10;99.90
33837;DHT22;20140;49.356;8.812;2023-02-14T15:12:57;10.10;99.90
33837;DHT22;20140;49.356;8.812;2023-02-14T15:15:47;10.70;99.90
33837;DHT22;20140;49.356;8.812;2023-02-14T15:18:13;10.10;99.90
33837;DHT22;20140;49.356;8.812;2023-02-14T15:20:39;10.10;99.90
33837;DHT22;20140;49.356;8.812;2023-02-14T15:23:06;10.80;99.90
33837;DHT22;20140;49.356;8.812;2023-02-14T15:25:34;10.70;99.90
33837;DHT22;20140;49.356;8.812;2023-02-14T15:28:00;10.70;99.90
33837;DHT22;20140;49.356;8.812;2023-02-14T15:30:31;10.00;99.90
33837;DHT22;20140;49.356;8.812;2023-02-14T15:33:02;11.00;99.90
33837;DHT22;20140;49.356;8.812;2023-02-14T15:35:31;10.50;99.90
33837;DHT22;20140;49.356;8.812;2023-02-14T15:38:00;10.70;99.90
33837;DHT22;20140;49.356;8.812;2023-02-14T15:40:28;10.30;99.90
33837;DHT22;20140;49.356;8.812;2023-02-14T15:42:59;9.70;99.90
33837;DHT22;20140;49.356;8.812;2023-02-14T15:50:27;10.00;99.90
33837;DHT22;20140;49.356;8.812;2023-02-14T15:52:55;9.70;99.90
33837;DHT22;20140;49.356;8.812;2023-02-14T15:55:24;10.00;99.90
33837;DHT22;20140;49.356;8.812;2023-02-14T15:57:59;9.90;99.90
33837;DHT22;20140;49.356;8.812;2023-02-14T16:00:25;9.60;99.90
33837;DHT22;20140;49.356;8.812;2023-02-14T16:03:06;9.80;99.90
33837;DHT22;20140;49.356;8.812;2023-02-14T16:05:34;9.50;99.90
33837;DHT22;20140;49.356;8.812;2023-02-14T16:13:33;9.00;99.90
33837;DHT22;20140;49.356;8.812;2023-02-14T16:18:47;8.40;99.90
33837;DHT22;20140;49.356;8.812;2023-02-14T16:21:15;8.10;99.90
33837;DHT22;20140;49.356;8.812;2023-02-14T16:26:33;7.80;99.90
33837;DHT22;20140;49.356;8.812;2023-02-14T16:29:03;7.60;99.90
33837;DHT22;20140;49.356;8.812;2023-02-14T16:31:29;7.20;99.90
33837;DHT22;20140;49.356;8.812;2023-02-14T16:33:55;7.00;99.90
33837;DHT22;20140;49.356;8.812;2023-02-14T16:36:29;6.80;99.90
33837;DHT22;20140;49.356;8.812;2023-02-14T16:38:55;6.70;99.90
33837;DHT22;20140;49.356;8.812;2023-02-14T16:41:24;6.50;99.90
33837;DHT22;20140;49.356;8.812;2023-02-14T16:43:50;6.40;99.90
33837;DHT22;20140;49.356;8.812;2023-02-14T16:46:22;6.20;99.90
33837;DHT22;20140;49.356;8.812;2023-02-14T16:48:48;6.00;99.90
33837;DHT22;20140;49.356;8.812;2023-02-14T16:51:17;5.90;99.90
33837;DHT22;20140;49.356;8.812;2023-02-14T16:53:43;5.80;99.90
33837;DHT22;20140;49.356;8.812;2023-02-14T16:56:49;5.50;99.90
33837;DHT22;20140;49.356;8.812;2023-02-14T16:59:06;5.40;99.90
33837;DHT22;20140;49.356;8.812;2023-02-14T17:01:31;5.20;99.90
33837;DHT22;20140;49.356;8.812;2023-02-14T17:03:57;5.00;99.90
33837;DHT22;20140;49.356;8.812;2023-02-14T17:06:26;4.90;99.90
33837;DHT22;20140;49.356;8.812;2023-02-14T17:08:53;4.80;99.90
33837;DHT22;20140;49.356;8.812;2023-02-14T17:11:20;4.70;99.90
33837;DHT22;20140;49.356;8.812;2023-02-14T17:13:47;4.60;99.90
33837;DHT22;20140;49.356;8.812;2023-02-14T17:16:13;4.50;99.90
33837;DHT22;20140;49.356;8.812;2023-02-14T17:18:41;4.40;99.90
33837;DHT22;20140;49.356;8.812;2023-02-14T17:21:08;4.30;99.90
33837;DHT22;20140;49.356;8.812;2023-02-14T17:23:34;4.20;99.90
33837;DHT22;20140;49.356;8.812;2023-02-14T17:26:00;4.10;99.90
33837;DHT22;20140;49.356;8.812;2023-02-14T17:28:25;4.00;99.90
33837;DHT22;20140;49.356;8.812;2023-02-14T17:30:52;3.80;99.90
33837;DHT22;20140;49.356;8.812;2023-02-14T17:33:18;3.70;99.90
33837;DHT22;20140;49.356;8.812;2023-02-14T17:35:44;3.60;99.90
33837;DHT22;20140;49.356;8.812;2023-02-14T17:38:10;3.50;99.90
33837;DHT22;20140;49.356;8.812;2023-02-14T17:40:35;3.50;99.90
33837;DHT22;20140;49.356;8.812;2023-02-14T17:43:01;3.50;99.90
33837;DHT22;20140;49.356;8.812;2023-02-14T17:45:26;3.40;99.90
33837;DHT22;20140;49.356;8.812;2023-02-14T17:47:52;3.30;99.90
33837;DHT22;20140;49.356;8.812;2023-02-14T17:50:17;3.10;99.90
33837;DHT22;20140;49.356;8.812;2023-02-14T17:52:43;3.00;99.90
33837;DHT22;20140;49.356;8.812;2023-02-14T17:55:09;2.90;99.90
33837;DHT22;20140;49.356;8.812;2023-02-14T17:57:35;2.80;99.90
33837;DHT22;20140;49.356;8.812;2023-02-14T18:00:03;2.80;99.90
33837;DHT22;20140;49.356;8.812;2023-02-14T18:02:30;2.80;99.90
33837;DHT22;20140;49.356;8.812;2023-02-14T18:04:55;2.80;99.90
33837;DHT22;20140;49.356;8.812;2023-02-14T18:07:23;2.70;99.90
33837;DHT22;20140;49.356;8.812;2023-02-14T18:09:49;2.60;99.90
33837;DHT22;20140;49.356;8.812;2023-02-14T18:12:14;2.50;99.90
33837;DHT22;20140;49.356;8.812;2023-02-14T18:14:40;2.40;99.90
33837;DHT22;20140;49.356;8.812;2023-02-14T18:17:05;2.30;99.90
33837;DHT22;20140;49.356;8.812;2023-02-14T18:19:31;2.20;99.90